Data for 05/30/2006

Time Sea-Level Adjusted Pressure Absolute Pressure Temperature Relative Humidity Dew Point   
(mb) (inHg) (mb) (inHg) (C) (F) (%) (C) (F)
00:05 1022 30.18 852 25.16 8.5 47.2 60 1.2 34.1
00:10 1022 30.18 852 25.16 8.5 47.3 60 1.3 34.3
00:15 1022 30.18 852 25.16 8.5 47.3 59 1 33.9
00:20 1023 30.21 852 25.16 8.4 47.1 61 1.3 34.4
00:25 1023 30.21 852 25.16 8.4 47.2 59 0.8 33.5
00:30 1023 30.21 852 25.16 8.5 47.2 58 0.6 33.1
00:35 1023 30.21 852 25.16 8.5 47.3 61 1.3 34.4
00:40 1023 30.21 852 25.16 8.5 47.2 59 1 33.8
00:45 1023 30.21 852 25.16 8.4 47 59 0.8 33.5
00:50 1023 30.21 852 25.16 8.3 46.9 59 0.9 33.6
00:55 1023 30.21 852 25.16 8.2 46.8 60 0.9 33.7
01:00 1023 30.21 852 25.16 8.2 46.7 60 0.9 33.6
01:05 1023 30.21 852 25.16 8.1 46.7 60 0.9 33.6
01:10 1023 30.21 852 25.16 8.1 46.5 60 0.9 33.5
01:15 1023 30.21 852 25.16 8.1 46.5 60 0.9 33.6
01:20 1023 30.21 852 25.16 8 46.5 62 1.2 34.2
01:25 1023 30.21 852 25.16 8 46.4 61 1.1 33.9
01:30 1023 30.21 852 25.16 7.9 46.1 63 1.2 34.2
01:35 1023 30.21 852 25.16 7.9 46.2 63 1.3 34.3
01:40 1023 30.21 852 25.16 7.9 46.2 64 1.6 34.9
01:45 1023 30.21 852 25.16 7.8 46 65 1.7 35
01:50 1023 30.21 852 25.16 7.6 45.7 66 1.6 34.9
01:55 1023 30.21 852 25.16 7.5 45.5 66 1.6 34.8
02:00 1023 30.21 852 25.16 7.4 45.2 69 2.1 35.9
02:05 1023 30.21 852 25.16 6.7 44.1 73 2.2 36
02:10 1023 30.21 852 25.16 6.4 43.6 73 2 35.5
02:15 1023 30.21 852 25.16 6.4 43.5 74 2.1 35.8
02:20 1023 30.21 852 25.16 6.1 43 75 2 35.6
02:25 1023 30.21 852 25.16 6 42.8 75 1.9 35.4
02:30 1023 30.21 852 25.16 5.9 42.6 75 1.8 35.3
02:35 1023 30.21 852 25.16 5.6 42.1 77 1.8 35.2
02:40 1023 30.21 852 25.16 5.3 41.5 79 1.9 35.4
02:45 1023 30.21 852 25.16 5.3 41.5 78 1.7 35.1
02:50 1023 30.21 852 25.16 5.3 41.5 77 1.5 34.7
02:55 1023 30.21 852 25.16 5.4 41.7 77 1.6 34.9
03:00 1023 30.21 852 25.16 5.4 41.7 77 1.6 34.9
03:05 1023 30.21 852 25.16 5.1 41.3 77 1.4 34.5
03:10 1023 30.21 852 25.16 5 40.9 77 1.3 34.3
03:15 1023 30.21 852 25.16 4.8 40.7 76 0.9 33.6
03:20 1023 30.21 852 25.16 4.7 40.5 77 1 33.7
03:25 1023 30.21 852 25.16 4.8 40.6 76 0.9 33.7
03:30 1023 30.21 852 25.16 4.8 40.7 76 0.9 33.6
03:35 1023 30.21 852 25.16 4.8 40.6 75 0.8 33.4
03:40 1023 30.21 852 25.16 4.7 40.4 76 0.8 33.4
03:45 1023 30.21 853 25.19 4.5 40.1 77 0.9 33.6
03:50 1023 30.21 853 25.19 4.4 40 77 0.8 33.5
03:55 1023 30.21 853 25.19 4.3 39.7 77 0.6 33
04:00 1023 30.21 853 25.19 4 39.2 78 0.5 32.9
04:05 1023 30.21 853 25.19 3.7 38.6 79 0.4 32.7
04:10 1023 30.21 853 25.19 3.5 38.4 80 0.3 32.6
04:15 1023 30.21 853 25.19 3.6 38.5 78 0.2 32.4
04:20 1024 30.24 853 25.19 3.7 38.7 77 0.1 32.2
04:25 1024 30.24 853 25.19 3.6 38.5 78 0.1 32.1
04:30 1024 30.24 853 25.19 3.2 37.7 79 -0.1 31.8
04:35 1024 30.24 853 25.19 3.2 37.8 78 -0.2 31.7
04:40 1024 30.24 853 25.19 3.5 38.4 76 -0.3 31.4
04:45 1024 30.24 853 25.19 3.7 38.7 77 -0 32
04:50 1024 30.24 853 25.19 3.8 38.9 76 0 32
04:55 1024 30.24 853 25.19 3.7 38.7 76 -0 31.9
05:00 1024 30.24 853 25.19 3.4 38.2 77 -0.3 31.5
05:05 1024 30.24 853 25.19 3.6 38.4 77 -0.1 31.8
05:10 1024 30.24 853 25.19 3.6 38.5 76 -0.3 31.5
05:15 1024 30.24 853 25.19 3.6 38.4 76 -0.3 31.4
05:20 1024 30.24 853 25.19 3.5 38.2 76 -0.4 31.3
05:25 1024 30.24 853 25.19 3.2 37.8 77 -0.4 31.3
05:30 1024 30.24 853 25.19 2.9 37.3 80 -0.2 31.6
05:35 1024 30.24 853 25.19 2.7 36.8 82 -0.2 31.7
05:40 1024 30.24 853 25.19 2.8 37 80 -0.3 31.5
05:45 1024 30.24 853 25.19 2.9 37.2 80 -0.2 31.7
05:50 1024 30.24 853 25.19 2.9 37.2 81 -0.1 31.9
05:55 1024 30.24 853 25.19 2.6 36.7 82 -0.1 31.9
06:00 1024 30.24 853 25.19 2.7 36.8 80 -0.4 31.3
06:05 1024 30.24 853 25.19 2.9 37.2 80 -0.3 31.5
06:10 1024 30.24 853 25.19 3.1 37.6 79 -0.2 31.6
06:15 1024 30.24 853 25.19 3 37.3 81 -0 31.9
06:20 1024 30.24 853 25.19 2.8 37 81 -0.1 31.8
06:25 1024 30.24 853 25.19 2.8 37 81 -0.2 31.7
06:30 1024 30.24 854 25.22 3 37.4 80 -0 31.9
06:35 1024 30.24 854 25.22 3.1 37.5 80 -0 32
06:40 1024 30.24 854 25.22 3.1 37.5 81 0.1 32.1
06:45 1024 30.24 854 25.22 3.2 37.7 80 0.1 32.2
06:50 1024 30.24 854 25.22 3.5 38.3 79 0.2 32.4
06:55 1024 30.24 854 25.22 4 39.1 77 0.2 32.4
07:00 1025 30.27 854 25.22 4.1 39.4 76 0.2 32.4
07:05 1025 30.27 854 25.22 4.5 40 75 0.4 32.6
07:10 1025 30.27 854 25.22 5.1 41.2 72 0.4 32.8
07:15 1025 30.27 854 25.22 5.3 41.6 72 0.7 33.3
07:20 1025 30.27 854 25.22 5.2 41.4 73 0.7 33.3
07:25 1025 30.27 854 25.22 5.4 41.8 74 1.1 34
07:30 1025 30.27 854 25.22 5.6 42.1 72 1 33.9
07:35 1025 30.27 854 25.22 6.5 43.6 70 1.4 34.5
07:40 1025 30.27 854 25.22 6.5 43.7 69 1.3 34.4
07:45 1025 30.27 854 25.22 6.6 43.9 69 1.3 34.4
07:50 1025 30.27 854 25.22 6.7 44.1 68 1.3 34.4
07:55 1025 30.27 854 25.22 7.2 44.9 66 1.3 34.4
08:00 1025 30.27 854 25.22 7.5 45.4 65 1.4 34.5
08:05 1025 30.27 854 25.22 8.3 47 62 1.4 34.6
08:10 1025 30.27 854 25.22 8.9 48 58 1.1 34
08:15 1025 30.27 854 25.22 9 48.2 59 1.5 34.7
08:20 1025 30.27 854 25.22 9.7 49.5 56 1.3 34.4
08:25 1025 30.27 854 25.22 10.1 50.3 55 1.6 34.9
08:30 1025 30.27 854 25.22 9.6 49.2 58 1.7 35
08:35 1025 30.27 854 25.22 9.7 49.5 55 1.3 34.3
08:40 1025 30.27 854 25.22 10 50 53 0.9 33.6
08:45 1025 30.27 854 25.22 10.6 51.2 53 1.4 34.6
08:50 1025 30.27 854 25.22 11 51.8 50 1 33.7
08:55 1025 30.27 854 25.22 11.2 52.1 50 1.1 34
09:00 1025 30.27 854 25.22 10.7 51.2 53 1.5 34.6
09:05 1025 30.27 854 25.22 10.8 51.4 51 1 33.8
09:10 1025 30.27 854 25.22 11.6 52.8 48 1.1 34
09:15 1025 30.27 854 25.22 11.9 53.4 49 1.6 34.9
09:20 1025 30.27 854 25.22 11.5 52.7 51 1.7 35.1
09:25 1025 30.27 854 25.22 11.3 52.4 53 2.1 35.8
09:30 1025 30.27 854 25.22 11.2 52.1 51 1.5 34.7
09:35 1025 30.27 854 25.22 11.9 53.3 50 1.7 35.1
09:40 1025 30.27 854 25.22 12.1 53.9 47 1.1 34
09:45 1025 30.27 854 25.22 11.6 52.8 47 0.8 33.4
09:50 1025 30.27 854 25.22 11.6 53 47 0.7 33.3
09:55 1025 30.27 854 25.22 11.7 53 47 0.8 33.5
10:00 1025 30.27 854 25.22 12.4 54.3 42 0 32
10:05 1025 30.27 854 25.22 12.7 54.8 43 0.4 32.8
10:10 1025 30.27 854 25.22 12.7 54.9 42 0.1 32.2
10:15 1025 30.27 854 25.22 13 55.3 43 0.8 33.5
10:20 1025 30.27 854 25.22 13.6 56.5 41 0.8 33.4
10:25 1025 30.27 854 25.22 13.7 56.6 41 0.7 33.2
10:30 1025 30.27 854 25.22 12.9 55.3 44 1.1 34
10:35 1025 30.27 854 25.22 12.3 54.1 43 0.1 32.1
10:40 1025 30.27 854 25.22 13.1 55.5 40 0 32
10:45 1025 30.27 854 25.22 13.6 56.5 37 -0.8 30.6
10:50 1025 30.27 854 25.22 14.4 58 38 0.4 32.6
10:55 1025 30.27 854 25.22 14.1 57.4 39 0.4 32.7
11:00 1025 30.27 854 25.22 14 57.1 39 0.2 32.4
11:05 1025 30.27 854 25.22 12.7 54.9 43 0.6 33
11:10 1025 30.27 854 25.22 12.6 54.7 43 0.3 32.5
11:15 1025 30.27 854 25.22 13.4 56.2 39 0 32
11:20 1025 30.27 854 25.22 13.7 56.7 37 -0.7 30.7
11:25 1025 30.27 854 25.22 13.8 56.8 34 -1.8 28.8
11:30 1025 30.27 854 25.22 14.2 57.5 33 -1.8 28.8
11:35 1025 30.27 854 25.22 14.3 57.8 34 -1.1 30
11:40 1025 30.27 854 25.22 14.7 58.4 33 -1.2 29.9
11:45 1025 30.27 854 25.22 14.6 58.2 33 -1.3 29.6
11:50 1025 30.27 854 25.22 14.8 58.6 34 -1 30.2
11:55 1025 30.27 854 25.22 15 59.1 33 -1.2 29.8
12:00 1025 30.27 854 25.22 14.7 58.4 34 -0.8 30.5
12:05 1025 30.27 854 25.22 14.5 58 34 -0.9 30.3
12:10 1025 30.27 854 25.22 14 57.2 35 -1.1 29.9
12:15 1025 30.27 854 25.22 15 59.1 35 -0.3 31.4
12:20 1025 30.27 854 25.22 15.5 59.8 33 -0.6 30.8
12:25 1025 30.27 854 25.22 15.6 60.1 32 -0.9 30.4
12:30 1025 30.27 854 25.22 15.3 59.5 35 -0.1 31.8
12:35 1025 30.27 854 25.22 14.5 58.1 37 -0 32
12:40 1025 30.27 854 25.22 14.7 58.4 34 -0.7 30.7
12:45 1025 30.27 854 25.22 14.5 58.1 38 0.4 32.7
12:50 1025 30.27 854 25.22 14.8 58.6 37 0.2 32.4
12:55 1025 30.27 854 25.22 14.9 58.8 36 -0.1 31.8
13:00 1025 30.27 854 25.22 15.7 60.3 34 -0 32
13:05 1024 30.24 854 25.22 15.9 60.7 33 -0.1 31.8
13:10 1024 30.24 854 25.22 15.7 60.2 32 -0.8 30.5
13:15 1024 30.24 854 25.22 14.8 58.6 35 -0.5 31.1
13:20 1024 30.24 854 25.22 14.9 58.8 35 -0.2 31.7
13:25 1024 30.24 854 25.22 16 60.8 33 -0.2 31.6
13:30 1024 30.24 854 25.22 16.4 61.5 32 -0.2 31.7
13:35 1024 30.24 853 25.19 15.9 60.5 33 -0.4 31.4
13:40 1024 30.24 853 25.19 16 60.8 34 0.1 32.2
13:45 1024 30.24 853 25.19 16.2 61.1 31 -0.8 30.6
13:50 1024 30.24 853 25.19 16.4 61.6 31 -0.6 30.9
13:55 1024 30.24 853 25.19 16.7 62 31 -0.4 31.2
14:00 1024 30.24 853 25.19 16.6 61.9 29 -1.2 29.8
14:05 1024 30.24 853 25.19 17 62.5 32 0.3 32.6
14:10 1024 30.24 853 25.19 16 60.7 35 0.5 32.8
14:15 1024 30.24 853 25.19 14.9 58.8 37 0.4 32.8
14:20 1024 30.24 853 25.19 14.4 57.8 38 0.1 32.2
14:25 1024 30.24 853 25.19 15.5 59.9 33 -0.5 31
14:30 1024 30.24 853 25.19 16.3 61.4 32 -0.1 31.9
14:35 1024 30.24 853 25.19 16.5 61.6 32 -0.3 31.5
14:40 1024 30.24 853 25.19 16.1 60.9 32 -0.5 31.1
14:45 1024 30.24 853 25.19 16.2 61.1 32 -0.6 30.9
14:50 1024 30.24 853 25.19 16.2 61.1 32 -0.2 31.6
14:55 1024 30.24 853 25.19 16.6 61.8 32 -0.1 31.8
15:00 1024 30.24 853 25.19 16.6 61.8 31 -0.4 31.3
15:05 1024 30.24 853 25.19 16.6 61.9 32 -0.3 31.5
15:10 1024 30.24 853 25.19 16.1 60.9 32 -0.6 30.9
15:15 1024 30.24 853 25.19 16.1 60.9 33 -0.2 31.6
15:20 1024 30.24 853 25.19 15.7 60.3 32 -0.7 30.7
15:25 1024 30.24 853 25.19 16.4 61.4 30 -1.2 29.8
15:30 1024 30.24 853 25.19 16.2 61.1 30 -1.2 29.8
15:35 1024 30.24 853 25.19 16.3 61.3 31 -0.8 30.5
15:40 1024 30.24 853 25.19 16.7 62.1 30 -0.6 30.8
15:45 1024 30.24 853 25.19 16.3 61.3 31 -0.8 30.6
15:50 1024 30.24 853 25.19 17.6 63.6 29 -0.6 30.9
15:55 1024 30.24 853 25.19 17.4 63.3 28 -1.1 30
16:00 1024 30.24 853 25.19 17.1 62.8 28 -1.5 29.3
16:05 1024 30.24 853 25.19 17.5 63.6 28 -1.1 30
16:10 1024 30.24 853 25.19 17.7 63.8 28 -1.2 29.9
16:15 1024 30.24 853 25.19 17.1 62.7 29 -0.9 30.4
16:20 1024 30.24 853 25.19 16.9 62.4 29 -1.2 29.9
16:25 1024 30.24 853 25.19 17.6 63.7 28 -1.1 30.1
16:30 1024 30.24 853 25.19 18 64.3 26 -1.7 29
16:35 1024 30.24 853 25.19 17.3 63.1 28 -1.2 29.9
16:40 1024 30.24 853 25.19 16.8 62.2 29 -1.4 29.4
16:45 1024 30.24 853 25.19 16.8 62.2 28 -1.5 29.2
16:50 1024 30.24 853 25.19 16.2 61.2 28 -2.1 28.3
16:55 1024 30.24 853 25.19 16.9 62.5 28 -1.7 28.9
17:00 1024 30.24 853 25.19 17.1 62.8 26 -2.3 27.9
17:05 1024 30.24 853 25.19 17.8 64 26 -1.8 28.7
17:10 1024 30.24 853 25.19 18.3 64.9 24 -2.3 27.9
17:15 1024 30.24 853 25.19 17.2 63 28 -1.3 29.6
17:20 1024 30.24 853 25.19 16.4 61.6 28 -1.9 28.6
17:25 1024 30.24 853 25.19 17.1 62.9 26 -2.3 27.8
17:30 1024 30.24 853 25.19 16.4 61.6 27 -2.3 27.9
17:35 1024 30.24 853 25.19 16.8 62.2 27 -2.4 27.6
17:40 1024 30.24 853 25.19 17.7 63.8 26 -1.9 28.5
17:45 1024 30.24 853 25.19 18.5 65.2 24 -2.5 27.5
17:50 1024 30.24 853 25.19 18.5 65.3 24 -2.6 27.3
17:55 1024 30.24 853 25.19 17.8 64 26 -2.1 28.2
18:00 1024 30.24 853 25.19 17.3 63.1 26 -2.3 27.9
18:05 1024 30.24 853 25.19 17 62.6 32 0.2 32.3
18:10 1024 30.24 853 25.19 16.4 61.4 32 -0.5 31.2
18:15 1024 30.24 853 25.19 16.2 61.2 31 -0.6 30.8
18:20 1024 30.24 853 25.19 16.1 61 31 -0.8 30.5
18:25 1024 30.24 853 25.19 15.8 60.5 32 -0.7 30.7
18:30 1024 30.24 853 25.19 15.7 60.2 33 -0.4 31.2
18:35 1024 30.24 853 25.19 15.8 60.5 33 -0.4 31.3
18:40 1024 30.24 853 25.19 15.7 60.3 33 -0.4 31.2
18:45 1024 30.24 853 25.19 15.8 60.5 31 -1.1 30.1
18:50 1024 30.24 853 25.19 15.9 60.5 33 -0.5 31.2
18:55 1024 30.24 853 25.19 15.7 60.3 33 -0.5 31.1
19:00 1024 30.24 853 25.19 15.5 59.9 33 -0.5 31.1
19:05 1024 30.24 853 25.19 15.6 60.1 33 -0.3 31.4
19:10 1024 30.24 853 25.19 15.3 59.6 34 -0.4 31.3
19:15 1024 30.24 853 25.19 15.6 60.1 33 -0.6 30.9
19:20 1024 30.24 853 25.19 15.3 59.6 34 -0.5 31.1
19:25 1024 30.24 853 25.19 15.3 59.5 32 -1.4 29.6
19:30 1024 30.24 853 25.19 15.2 59.3 31 -1.6 29.2
19:35 1024 30.24 853 25.19 15 58.9 31 -2 28.4
19:40 1024 30.24 853 25.19 15 59 32 -1.5 29.3
19:45 1024 30.24 853 25.19 14.9 58.8 32 -1.4 29.6
19:50 1024 30.24 853 25.19 14.8 58.7 33 -1 30.1
19:55 1024 30.24 853 25.19 14.8 58.6 34 -1 30.2
20:00 1024 30.24 853 25.19 14.6 58.2 36 -0.3 31.4
20:05 1024 30.24 853 25.19 14.4 57.8 39 0.7 33.3
20:10 1024 30.24 853 25.19 14 57.3 40 0.8 33.5
20:15 1024 30.24 853 25.19 14 57.2 39 0.2 32.4
20:20 1024 30.24 853 25.19 13.8 56.9 41 1 33.8
20:25 1024 30.24 853 25.19 13.5 56.3 44 1.7 35
20:30 1024 30.24 853 25.19 13.4 56 45 1.8 35.2
20:35 1024 30.24 853 25.19 13.3 55.9 46 1.9 35.5
20:40 1024 30.24 853 25.19 13.2 55.7 48 2.4 36.4
20:45 1024 30.24 853 25.19 13 55.4 48 2.4 36.4
20:50 1024 30.24 853 25.19 12.7 54.8 51 2.7 36.9
20:55 1024 30.24 853 25.19 12.3 54.1 51 2.5 36.4
21:00 1024 30.24 853 25.19 12.3 54.1 45 0.8 33.5
21:05 1024 30.24 853 25.19 12.5 54.4 46 1.4 34.4
21:10 1024 30.24 853 25.19 12.4 54.3 48 1.7 35.1
21:15 1024 30.24 853 25.19 12.6 54.6 48 2 35.6
21:20 1024 30.24 854 25.22 12.3 54.1 47 1.4 34.5
21:25 1024 30.24 854 25.22 11.8 53.2 49 1.6 34.9
21:30 1024 30.24 854 25.22 11.7 53 48 1 33.8
21:35 1024 30.24 854 25.22 11.7 53 47 0.9 33.6
21:40 1024 30.24 854 25.22 11.6 52.8 48 1 33.8
21:45 1025 30.27 854 25.22 11.4 52.4 50 1.4 34.5
21:50 1025 30.27 854 25.22 11.1 51.9 51 1.4 34.6
21:55 1025 30.27 854 25.22 10.9 51.6 52 1.5 34.8
22:00 1025 30.27 854 25.22 10.6 51.1 54 1.8 35.2
22:05 1025 30.27 854 25.22 10.5 50.9 53 1.4 34.5
22:10 1025 30.27 854 25.22 10.4 50.7 53 1.3 34.3
22:15 1025 30.27 854 25.22 10.3 50.5 54 1.4 34.5
22:20 1025 30.27 854 25.22 10.1 50.3 54 1.3 34.4
22:25 1025 30.27 854 25.22 10.1 50.1 54 1.3 34.3
22:30 1025 30.27 854 25.22 10 49.9 55 1.4 34.5
22:35 1025 30.27 855 25.25 9.8 49.7 55 1.3 34.3
22:40 1025 30.27 855 25.25 9.7 49.5 55 1.2 34.2
22:45 1025 30.27 855 25.25 9.7 49.4 55 1 33.9
22:50 1025 30.27 855 25.25 9.7 49.4 54 0.9 33.7
22:55 1025 30.27 855 25.25 9.7 49.4 55 1.1 33.9
23:00 1025 30.27 855 25.25 9.6 49.4 55 1 33.8
23:05 1025 30.27 855 25.25 9.6 49.3 54 0.9 33.6
23:10 1026 30.3 855 25.25 9.6 49.4 55 1 33.9
23:15 1026 30.3 855 25.25 9.6 49.3 55 1 33.8
23:20 1026 30.3 855 25.25 9.5 49 56 1.1 34.1
23:25 1026 30.3 855 25.25 9.4 48.9 56 1.1 34
23:30 1025 30.27 855 25.25 9.3 48.7 57 1.2 34.1
23:35 1026 30.3 855 25.25 9.1 48.5 57 1 33.9
23:40 1026 30.3 855 25.25 9.1 48.4 57 1.1 33.9
23:45 1026 30.3 855 25.25 9.1 48.4 56 0.9 33.7
23:50 1025 30.27 855 25.25 9.1 48.4 56 0.9 33.7
23:55 1025 30.27 855 25.25 9 48.2 57 1 33.8
24:00 1025 30.27 855 25.25 8.9 48 58 1 33.8